Austin Straubel International Airport
KGRB : now visible

Airfield :











YOU CAN JOIN US ON...

 
LOGIN :

Register | Disclaimer

   EN    FR    IT 

 









Legend :    VFR   Marginal VFR   IFR   Intensive IFR   Very Intensive IFR
Visi :
Ceiling :
>= 8 km
>= 3000ft
5 to 8 km
1000 to 3000 ft
1500m to 5 km
500 to 1000 ft
800 to 1500m
200 to 500 ft
< 800m
< 200 ft
Symbols :   Thunderstorms  Fog  Heavy snow  Heavy precipitations  Wind > 20 kt






- Airport Elevation : 695 ft
- IATA code : GRB


KGRB - Austin Straubel International

CURRENT METAR :
  • 281421Z 03007KT 10SM -RA BKN010 BKN095 OVC110 22/19 A2983 RMK AO2 P0001 T02170194

EXPIRED METARs :
  • 281353Z 03008KT 9SM -RA SCT010 SCT080 OVC110 22/19 A2983 RMK AO2 RAB11 SLP100 P0000 T02170194
  • 281318Z 36005KT 10SM -RA BKN009 OVC042 22/19 A2985 RMK AO2 RAB11 P0000 T02170189
  • 281301Z 35006KT 10SM FEW009 BKN046 22/19 A2985 RMK AO2 T02170189
  • 281253Z 34005KT 10SM BKN046 BKN110 21/19 A2985 RMK AO2 SLP106 T02110189
  • 281153Z 34005KT 10SM BKN039 OVC120 21/18 A2986 RMK AO2 SLP108 T02110183 10228 20200 53000

TAF KGRB
Valid from the 28 at 12:00 until the 29 at 12:00 UTC


281137Z 2812/2912 VRB03KT P6SM VCSH SCT035 BKN060
FM281400 30004KT 2SM +SHRA BR SCT010 OVC020
FM281900 31005KT 5SM SHRA OVC015
FM282200 34008KT P6SM -SHRA BKN020
FM290000 29003KT P6SM BKN080
FM290300 30005KT P6SM BKN120
KZMP FIR / North America



MET'MAP, your aeronautical weather chart ! - Copyright ORBIFLY December 2007 - Disclaimer

ORBIFLY MET'MAP TEAM :

Programming & Development : Alexandra Zaïnal
Concept & original design : Baudouin d'Aumeries
Assistance for programming : Marc-Olivier Méhu
Technical & hardware support : Manuel Goepfert

Contact : metmap@orbifly.com




SOURCES & CREDITS :

   NOAA       Earth
Advisory